sensor_id;sensor_type;location;lat;lon;timestamp;P1;durP1;ratioP1;P2;durP2;ratioP2
32096;SDS011;18610;49.916;8.284;2022-10-16T00:01:52;13.00;;;2.33;;
32096;SDS011;18610;49.916;8.284;2022-10-16T00:04:19;2.20;;;2.00;;
32096;SDS011;18610;49.916;8.284;2022-10-16T00:06:46;4.82;;;1.77;;
32096;SDS011;18610;49.916;8.284;2022-10-16T00:09:12;11.15;;;1.75;;
32096;SDS011;18610;49.916;8.284;2022-10-16T00:11:39;5.93;;;2.25;;
32096;SDS011;18610;49.916;8.284;2022-10-16T00:14:09;6.63;;;1.95;;
32096;SDS011;18610;49.916;8.284;2022-10-16T00:16:38;4.28;;;2.10;;
32096;SDS011;18610;49.916;8.284;2022-10-16T00:19:04;2.20;;;1.92;;
32096;SDS011;18610;49.916;8.284;2022-10-16T00:21:32;4.13;;;2.38;;
32096;SDS011;18610;49.916;8.284;2022-10-16T00:24:00;5.13;;;3.00;;
32096;SDS011;18610;49.916;8.284;2022-10-16T00:26:30;5.53;;;2.60;;
32096;SDS011;18610;49.916;8.284;2022-10-16T00:28:57;5.93;;;2.50;;
32096;SDS011;18610;49.916;8.284;2022-10-16T00:31:26;3.45;;;2.45;;
32096;SDS011;18610;49.916;8.284;2022-10-16T00:33:53;3.17;;;2.58;;
32096;SDS011;18610;49.916;8.284;2022-10-16T00:36:21;4.93;;;2.80;;
32096;SDS011;18610;49.916;8.284;2022-10-16T00:38:51;6.75;;;2.85;;
32096;SDS011;18610;49.916;8.284;2022-10-16T00:41:19;5.40;;;2.88;;
32096;SDS011;18610;49.916;8.284;2022-10-16T00:43:47;5.18;;;3.10;;
32096;SDS011;18610;49.916;8.284;2022-10-16T00:46:16;3.28;;;2.72;;
32096;SDS011;18610;49.916;8.284;2022-10-16T00:48:47;3.30;;;2.60;;
32096;SDS011;18610;49.916;8.284;2022-10-16T00:53:45;5.10;;;2.70;;
32096;SDS011;18610;49.916;8.284;2022-10-16T00:56:12;3.33;;;2.63;;
32096;SDS011;18610;49.916;8.284;2022-10-16T00:58:39;3.05;;;2.53;;
32096;SDS011;18610;49.916;8.284;2022-10-16T01:01:06;4.07;;;2.53;;
32096;SDS011;18610;49.916;8.284;2022-10-16T01:03:34;6.47;;;2.70;;
32096;SDS011;18610;49.916;8.284;2022-10-16T01:06:09;2.63;;;2.20;;
32096;SDS011;18610;49.916;8.284;2022-10-16T01:08:46;4.00;;;2.95;;
32096;SDS011;18610;49.916;8.284;2022-10-16T01:11:24;3.50;;;2.40;;
32096;SDS011;18610;49.916;8.284;2022-10-16T01:13:57;4.93;;;2.35;;
32096;SDS011;18610;49.916;8.284;2022-10-16T01:16:29;7.45;;;2.85;;
32096;SDS011;18610;49.916;8.284;2022-10-16T01:19:06;6.35;;;2.42;;
32096;SDS011;18610;49.916;8.284;2022-10-16T01:21:39;3.38;;;2.17;;
32096;SDS011;18610;49.916;8.284;2022-10-16T01:24:12;2.85;;;2.17;;
32096;SDS011;18610;49.916;8.284;2022-10-16T01:27:05;4.90;;;2.17;;
32096;SDS011;18610;49.916;8.284;2022-10-16T01:29:36;3.67;;;2.20;;
32096;SDS011;18610;49.916;8.284;2022-10-16T01:32:09;3.47;;;2.08;;
32096;SDS011;18610;49.916;8.284;2022-10-16T01:34:42;3.83;;;2.28;;
32096;SDS011;18610;49.916;8.284;2022-10-16T01:37:15;9.57;;;2.38;;
32096;SDS011;18610;49.916;8.284;2022-10-16T01:39:46;4.85;;;2.92;;
32096;SDS011;18610;49.916;8.284;2022-10-16T01:42:18;4.82;;;1.80;;
32096;SDS011;18610;49.916;8.284;2022-10-16T01:44:48;5.45;;;2.13;;
32096;SDS011;18610;49.916;8.284;2022-10-16T01:47:17;3.30;;;2.50;;
32096;SDS011;18610;49.916;8.284;2022-10-16T01:49:48;4.43;;;1.75;;
32096;SDS011;18610;49.916;8.284;2022-10-16T01:52:19;5.10;;;2.17;;
32096;SDS011;18610;49.916;8.284;2022-10-16T01:54:49;3.25;;;2.05;;
32096;SDS011;18610;49.916;8.284;2022-10-16T01:57:21;4.07;;;2.40;;
32096;SDS011;18610;49.916;8.284;2022-10-16T01:59:52;3.42;;;2.10;;
32096;SDS011;18610;49.916;8.284;2022-10-16T02:02:22;4.90;;;1.83;;
32096;SDS011;18610;49.916;8.284;2022-10-16T02:04:53;4.15;;;2.33;;
32096;SDS011;18610;49.916;8.284;2022-10-16T02:07:24;2.83;;;2.17;;
32096;SDS011;18610;49.916;8.284;2022-10-16T02:09:51;3.05;;;1.52;;
32096;SDS011;18610;49.916;8.284;2022-10-16T02:12:19;3.05;;;1.77;;
32096;SDS011;18610;49.916;8.284;2022-10-16T02:14:52;3.13;;;1.90;;
32096;SDS011;18610;49.916;8.284;2022-10-16T02:17:20;2.10;;;1.80;;
32096;SDS011;18610;49.916;8.284;2022-10-16T02:19:47;2.75;;;2.05;;
32096;SDS011;18610;49.916;8.284;2022-10-16T02:22:16;5.70;;;1.63;;
32096;SDS011;18610;49.916;8.284;2022-10-16T02:24:50;2.13;;;1.70;;
32096;SDS011;18610;49.916;8.284;2022-10-16T02:27:23;3.60;;;1.70;;
32096;SDS011;18610;49.916;8.284;2022-10-16T02:29:56;7.72;;;1.65;;
32096;SDS011;18610;49.916;8.284;2022-10-16T02:32:32;1.60;;;1.45;;
32096;SDS011;18610;49.916;8.284;2022-10-16T02:35:02;1.65;;;1.30;;
32096;SDS011;18610;49.916;8.284;2022-10-16T02:37:30;5.75;;;1.00;;
32096;SDS011;18610;49.916;8.284;2022-10-16T02:39:58;1.45;;;1.35;;
32096;SDS011;18610;49.916;8.284;2022-10-16T02:42:31;3.15;;;1.05;;
32096;SDS011;18610;49.916;8.284;2022-10-16T02:45:00;2.25;;;1.17;;
32096;SDS011;18610;49.916;8.284;2022-10-16T02:47:26;2.15;;;1.30;;
32096;SDS011;18610;49.916;8.284;2022-10-16T02:49:53;5.82;;;1.52;;
32096;SDS011;18610;49.916;8.284;2022-10-16T02:52:20;3.85;;;1.20;;
32096;SDS011;18610;49.916;8.284;2022-10-16T02:54:47;6.28;;;1.75;;
32096;SDS011;18610;49.916;8.284;2022-10-16T02:57:14;3.42;;;1.25;;
32096;SDS011;18610;49.916;8.284;2022-10-16T02:59:42;8.15;;;1.30;;
32096;SDS011;18610;49.916;8.284;2022-10-16T03:02:09;6.90;;;2.30;;
32096;SDS011;18610;49.916;8.284;2022-10-16T03:04:36;2.17;;;1.20;;
32096;SDS011;18610;49.916;8.284;2022-10-16T03:07:03;14.35;;;1.63;;
32096;SDS011;18610;49.916;8.284;2022-10-16T03:09:30;5.10;;;1.10;;
32096;SDS011;18610;49.916;8.284;2022-10-16T03:11:57;0.93;;;0.88;;
32096;SDS011;18610;49.916;8.284;2022-10-16T03:14:24;3.65;;;0.88;;
32096;SDS011;18610;49.916;8.284;2022-10-16T03:16:52;4.18;;;1.35;;
32096;SDS011;18610;49.916;8.284;2022-10-16T03:19:19;7.93;;;1.48;;
32096;SDS011;18610;49.916;8.284;2022-10-16T03:21:46;2.72;;;1.05;;
32096;SDS011;18610;49.916;8.284;2022-10-16T03:24:12;2.97;;;1.30;;
32096;SDS011;18610;49.916;8.284;2022-10-16T03:26:39;1.17;;;0.90;;
32096;SDS011;18610;49.916;8.284;2022-10-16T03:29:06;2.85;;;1.00;;
32096;SDS011;18610;49.916;8.284;2022-10-16T03:31:33;4.95;;;1.38;;
32096;SDS011;18610;49.916;8.284;2022-10-16T03:34:01;3.80;;;1.00;;
32096;SDS011;18610;49.916;8.284;2022-10-16T03:36:28;0.85;;;0.82;;
32096;SDS011;18610;49.916;8.284;2022-10-16T03:38:55;10.10;;;1.30;;
32096;SDS011;18610;49.916;8.284;2022-10-16T03:41:22;4.18;;;1.55;;
32096;SDS011;18610;49.916;8.284;2022-10-16T03:43:48;1.20;;;0.98;;
32096;SDS011;18610;49.916;8.284;2022-10-16T03:46:15;3.30;;;1.13;;
32096;SDS011;18610;49.916;8.284;2022-10-16T03:48:42;7.40;;;1.10;;
32096;SDS011;18610;49.916;8.284;2022-10-16T03:51:10;0.80;;;0.80;;
32096;SDS011;18610;49.916;8.284;2022-10-16T03:53:37;5.15;;;0.93;;
32096;SDS011;18610;49.916;8.284;2022-10-16T03:56:04;3.08;;;0.88;;
32096;SDS011;18610;49.916;8.284;2022-10-16T03:58:31;5.13;;;0.73;;
32096;SDS011;18610;49.916;8.284;2022-10-16T04:00:58;3.03;;;0.73;;
32096;SDS011;18610;49.916;8.284;2022-10-16T04:03:25;4.78;;;0.88;;
32096;SDS011;18610;49.916;8.284;2022-10-16T04:05:51;2.50;;;0.98;;
32096;SDS011;18610;49.916;8.284;2022-10-16T04:08:20;4.82;;;1.30;;
32096;SDS011;18610;49.916;8.284;2022-10-16T04:10:46;3.40;;;0.85;;
32096;SDS011;18610;49.916;8.284;2022-10-16T04:13:14;0.70;;;0.70;;
32096;SDS011;18610;49.916;8.284;2022-10-16T04:15:40;0.70;;;0.70;;
32096;SDS011;18610;49.916;8.284;2022-10-16T04:18:07;1.17;;;0.80;;
32096;SDS011;18610;49.916;8.284;2022-10-16T04:20:34;5.20;;;0.98;;
32096;SDS011;18610;49.916;8.284;2022-10-16T04:23:01;1.05;;;0.95;;
32096;SDS011;18610;49.916;8.284;2022-10-16T04:25:29;1.60;;;1.00;;
32096;SDS011;18610;49.916;8.284;2022-10-16T04:27:56;1.35;;;1.10;;
32096;SDS011;18610;49.916;8.284;2022-10-16T04:30:23;3.42;;;0.80;;
32096;SDS011;18610;49.916;8.284;2022-10-16T04:32:50;4.75;;;0.80;;
32096;SDS011;18610;49.916;8.284;2022-10-16T04:35:17;0.82;;;0.82;;
32096;SDS011;18610;49.916;8.284;2022-10-16T04:37:45;1.25;;;1.10;;
32096;SDS011;18610;49.916;8.284;2022-10-16T04:40:12;1.33;;;0.88;;
32096;SDS011;18610;49.916;8.284;2022-10-16T04:42:40;3.47;;;0.80;;
32096;SDS011;18610;49.916;8.284;2022-10-16T04:45:08;7.50;;;1.60;;
32096;SDS011;18610;49.916;8.284;2022-10-16T04:47:34;0.77;;;0.77;;
32096;SDS011;18610;49.916;8.284;2022-10-16T04:50:02;8.38;;;0.70;;
32096;SDS011;18610;49.916;8.284;2022-10-16T04:52:29;1.02;;;0.82;;
32096;SDS011;18610;49.916;8.284;2022-10-16T04:54:56;3.65;;;0.65;;
32096;SDS011;18610;49.916;8.284;2022-10-16T04:57:26;11.25;;;1.15;;
32096;SDS011;18610;49.916;8.284;2022-10-16T04:59:54;4.13;;;0.85;;
32096;SDS011;18610;49.916;8.284;2022-10-16T05:02:21;2.22;;;1.08;;
32096;SDS011;18610;49.916;8.284;2022-10-16T05:04:48;1.95;;;1.00;;
32096;SDS011;18610;49.916;8.284;2022-10-16T05:07:15;3.63;;;1.10;;
32096;SDS011;18610;49.916;8.284;2022-10-16T05:09:41;1.60;;;0.77;;
32096;SDS011;18610;49.916;8.284;2022-10-16T05:12:08;3.63;;;1.50;;
32096;SDS011;18610;49.916;8.284;2022-10-16T05:14:35;4.70;;;0.98;;
32096;SDS011;18610;49.916;8.284;2022-10-16T05:17:03;0.98;;;0.82;;
32096;SDS011;18610;49.916;8.284;2022-10-16T05:19:30;3.00;;;1.30;;
32096;SDS011;18610;49.916;8.284;2022-10-16T05:21:57;2.30;;;1.00;;
32096;SDS011;18610;49.916;8.284;2022-10-16T05:24:24;2.95;;;0.85;;
32096;SDS011;18610;49.916;8.284;2022-10-16T05:26:50;2.30;;;1.00;;
32096;SDS011;18610;49.916;8.284;2022-10-16T05:29:17;3.42;;;1.15;;
32096;SDS011;18610;49.916;8.284;2022-10-16T05:31:44;7.20;;;0.90;;
32096;SDS011;18610;49.916;8.284;2022-10-16T05:34:12;2.42;;;0.90;;
32096;SDS011;18610;49.916;8.284;2022-10-16T05:36:39;0.88;;;0.88;;
32096;SDS011;18610;49.916;8.284;2022-10-16T05:39:06;2.88;;;1.13;;
32096;SDS011;18610;49.916;8.284;2022-10-16T05:41:33;8.25;;;0.90;;
32096;SDS011;18610;49.916;8.284;2022-10-16T05:43:59;1.95;;;1.05;;
32096;SDS011;18610;49.916;8.284;2022-10-16T05:46:29;2.03;;;1.30;;
32096;SDS011;18610;49.916;8.284;2022-10-16T05:48:56;2.75;;;1.00;;
32096;SDS011;18610;49.916;8.284;2022-10-16T05:51:24;2.08;;;1.13;;
32096;SDS011;18610;49.916;8.284;2022-10-16T05:53:51;1.77;;;0.98;;
32096;SDS011;18610;49.916;8.284;2022-10-16T05:56:18;2.95;;;1.27;;
32096;SDS011;18610;49.916;8.284;2022-10-16T05:58:45;1.15;;;1.15;;
32096;SDS011;18610;49.916;8.284;2022-10-16T06:01:13;1.65;;;1.08;;
32096;SDS011;18610;49.916;8.284;2022-10-16T06:03:42;1.60;;;1.15;;
32096;SDS011;18610;49.916;8.284;2022-10-16T06:06:09;4.05;;;1.10;;
32096;SDS011;18610;49.916;8.284;2022-10-16T06:08:38;1.50;;;1.23;;
32096;SDS011;18610;49.916;8.284;2022-10-16T06:11:06;2.22;;;1.95;;
32096;SDS011;18610;49.916;8.284;2022-10-16T06:13:35;4.63;;;3.45;;
32096;SDS011;18610;49.916;8.284;2022-10-16T06:16:02;4.95;;;2.47;;
32096;SDS011;18610;49.916;8.284;2022-10-16T06:18:30;7.32;;;1.80;;
32096;SDS011;18610;49.916;8.284;2022-10-16T06:20:56;1.52;;;1.40;;
32096;SDS011;18610;49.916;8.284;2022-10-16T06:23:24;0.90;;;0.90;;
32096;SDS011;18610;49.916;8.284;2022-10-16T06:25:52;1.80;;;1.52;;
32096;SDS011;18610;49.916;8.284;2022-10-16T06:28:19;2.42;;;1.60;;
32096;SDS011;18610;49.916;8.284;2022-10-16T06:30:45;3.38;;;1.40;;
32096;SDS011;18610;49.916;8.284;2022-10-16T06:33:13;3.05;;;1.40;;
32096;SDS011;18610;49.916;8.284;2022-10-16T06:35:39;5.20;;;1.05;;
32096;SDS011;18610;49.916;8.284;2022-10-16T06:38:06;4.20;;;1.20;;
32096;SDS011;18610;49.916;8.284;2022-10-16T06:40:33;8.27;;;1.55;;
32096;SDS011;18610;49.916;8.284;2022-10-16T06:43:01;1.80;;;1.38;;
32096;SDS011;18610;49.916;8.284;2022-10-16T06:45:27;2.47;;;1.30;;
32096;SDS011;18610;49.916;8.284;2022-10-16T06:47:54;1.83;;;1.35;;
32096;SDS011;18610;49.916;8.284;2022-10-16T06:50:21;3.22;;;1.55;;
32096;SDS011;18610;49.916;8.284;2022-10-16T06:52:48;8.05;;;1.60;;
32096;SDS011;18610;49.916;8.284;2022-10-16T06:55:15;3.08;;;1.40;;
32096;SDS011;18610;49.916;8.284;2022-10-16T06:57:42;2.50;;;1.02;;
32096;SDS011;18610;49.916;8.284;2022-10-16T07:00:11;2.35;;;1.30;;
32096;SDS011;18610;49.916;8.284;2022-10-16T07:02:38;4.32;;;1.10;;
32096;SDS011;18610;49.916;8.284;2022-10-16T07:05:05;1.23;;;1.17;;
32096;SDS011;18610;49.916;8.284;2022-10-16T07:07:32;3.38;;;1.10;;
32096;SDS011;18610;49.916;8.284;2022-10-16T07:09:59;5.93;;;1.33;;
32096;SDS011;18610;49.916;8.284;2022-10-16T07:12:26;2.22;;;1.30;;
32096;SDS011;18610;49.916;8.284;2022-10-16T07:14:52;2.83;;;1.05;;
32096;SDS011;18610;49.916;8.284;2022-10-16T07:17:22;2.42;;;1.52;;
32096;SDS011;18610;49.916;8.284;2022-10-16T07:19:48;1.25;;;1.13;;
32096;SDS011;18610;49.916;8.284;2022-10-16T07:22:18;12.68;;;7.65;;
32096;SDS011;18610;49.916;8.284;2022-10-16T07:24:45;7.72;;;6.38;;
32096;SDS011;18610;49.916;8.284;2022-10-16T07:27:12;2.47;;;2.10;;
32096;SDS011;18610;49.916;8.284;2022-10-16T07:29:40;5.60;;;1.70;;
32096;SDS011;18610;49.916;8.284;2022-10-16T07:32:07;4.50;;;2.22;;
32096;SDS011;18610;49.916;8.284;2022-10-16T07:34:35;36.65;;;23.98;;
32096;SDS011;18610;49.916;8.284;2022-10-16T07:37:02;53.95;;;36.40;;
32096;SDS011;18610;49.916;8.284;2022-10-16T07:39:29;26.23;;;19.77;;
32096;SDS011;18610;49.916;8.284;2022-10-16T07:41:56;38.30;;;22.80;;
32096;SDS011;18610;49.916;8.284;2022-10-16T07:44:23;16.42;;;10.57;;
32096;SDS011;18610;49.916;8.284;2022-10-16T07:46:50;13.88;;;8.85;;
32096;SDS011;18610;49.916;8.284;2022-10-16T07:49:17;9.70;;;6.10;;
32096;SDS011;18610;49.916;8.284;2022-10-16T07:51:45;19.85;;;14.23;;
32096;SDS011;18610;49.916;8.284;2022-10-16T07:54:12;34.15;;;22.35;;
32096;SDS011;18610;49.916;8.284;2022-10-16T07:56:39;22.55;;;14.63;;
32096;SDS011;18610;49.916;8.284;2022-10-16T07:59:06;5.97;;;4.47;;
32096;SDS011;18610;49.916;8.284;2022-10-16T08:01:32;2.72;;;2.50;;
32096;SDS011;18610;49.916;8.284;2022-10-16T08:03:59;5.07;;;2.42;;
32096;SDS011;18610;49.916;8.284;2022-10-16T08:06:26;3.60;;;2.17;;
32096;SDS011;18610;49.916;8.284;2022-10-16T08:08:55;3.08;;;1.50;;
32096;SDS011;18610;49.916;8.284;2022-10-16T08:11:22;2.25;;;1.88;;
32096;SDS011;18610;49.916;8.284;2022-10-16T08:13:49;2.22;;;1.58;;
32096;SDS011;18610;49.916;8.284;2022-10-16T08:16:16;3.90;;;2.35;;
32096;SDS011;18610;49.916;8.284;2022-10-16T08:18:43;1.42;;;1.33;;
32096;SDS011;18610;49.916;8.284;2022-10-16T08:21:12;3.05;;;1.90;;
32096;SDS011;18610;49.916;8.284;2022-10-16T08:23:40;5.45;;;2.20;;
32096;SDS011;18610;49.916;8.284;2022-10-16T08:26:09;3.47;;;1.60;;
32096;SDS011;18610;49.916;8.284;2022-10-16T08:28:37;3.67;;;1.85;;
32096;SDS011;18610;49.916;8.284;2022-10-16T08:31:05;2.38;;;1.98;;
32096;SDS011;18610;49.916;8.284;2022-10-16T08:33:38;1.88;;;1.50;;
32096;SDS011;18610;49.916;8.284;2022-10-16T08:36:06;2.58;;;1.20;;
32096;SDS011;18610;49.916;8.284;2022-10-16T08:38:33;3.92;;;1.58;;
32096;SDS011;18610;49.916;8.284;2022-10-16T08:41:04;5.93;;;1.38;;
32096;SDS011;18610;49.916;8.284;2022-10-16T08:43:49;5.50;;;1.42;;
32096;SDS011;18610;49.916;8.284;2022-10-16T08:46:34;4.82;;;1.80;;
32096;SDS011;18610;49.916;8.284;2022-10-16T08:49:12;2.25;;;2.00;;
32096;SDS011;18610;49.916;8.284;2022-10-16T08:51:40;3.22;;;1.85;;
32096;SDS011;18610;49.916;8.284;2022-10-16T08:54:12;4.25;;;1.90;;
32096;SDS011;18610;49.916;8.284;2022-10-16T08:56:50;4.18;;;2.53;;
32096;SDS011;18610;49.916;8.284;2022-10-16T08:59:16;4.45;;;2.50;;
32096;SDS011;18610;49.916;8.284;2022-10-16T09:01:44;11.00;;;3.03;;
32096;SDS011;18610;49.916;8.284;2022-10-16T09:07:12;5.13;;;2.38;;
32096;SDS011;18610;49.916;8.284;2022-10-16T09:09:56;5.28;;;2.13;;
32096;SDS011;18610;49.916;8.284;2022-10-16T09:12:39;3.03;;;2.65;;
32096;SDS011;18610;49.916;8.284;2022-10-16T09:15:17;4.18;;;2.15;;
32096;SDS011;18610;49.916;8.284;2022-10-16T09:17:53;3.55;;;2.30;;
32096;SDS011;18610;49.916;8.284;2022-10-16T09:20:29;2.38;;;1.98;;
32096;SDS011;18610;49.916;8.284;2022-10-16T09:23:12;3.30;;;1.80;;
32096;SDS011;18610;49.916;8.284;2022-10-16T09:25:43;3.63;;;1.73;;
32096;SDS011;18610;49.916;8.284;2022-10-16T09:28:14;6.18;;;2.20;;
32096;SDS011;18610;49.916;8.284;2022-10-16T09:30:42;3.58;;;1.48;;
32096;SDS011;18610;49.916;8.284;2022-10-16T09:33:09;4.60;;;1.50;;
32096;SDS011;18610;49.916;8.284;2022-10-16T09:35:38;2.55;;;2.08;;
32096;SDS011;18610;49.916;8.284;2022-10-16T09:38:06;4.75;;;2.13;;
32096;SDS011;18610;49.916;8.284;2022-10-16T09:40:34;5.18;;;1.90;;
32096;SDS011;18610;49.916;8.284;2022-10-16T09:43:05;5.22;;;2.08;;
32096;SDS011;18610;49.916;8.284;2022-10-16T09:45:56;2.55;;;1.80;;
32096;SDS011;18610;49.916;8.284;2022-10-16T09:48:25;2.22;;;1.60;;
32096;SDS011;18610;49.916;8.284;2022-10-16T09:50:58;2.72;;;1.20;;
32096;SDS011;18610;49.916;8.284;2022-10-16T09:53:26;3.85;;;1.60;;
32096;SDS011;18610;49.916;8.284;2022-10-16T09:56:04;1.70;;;1.17;;
32096;SDS011;18610;49.916;8.284;2022-10-16T09:58:32;1.88;;;1.30;;
32096;SDS011;18610;49.916;8.284;2022-10-16T10:01:00;4.55;;;1.13;;
32096;SDS011;18610;49.916;8.284;2022-10-16T10:03:33;1.77;;;1.00;;
32096;SDS011;18610;49.916;8.284;2022-10-16T10:06:04;1.67;;;1.30;;
32096;SDS011;18610;49.916;8.284;2022-10-16T10:08:40;1.42;;;1.23;;
32096;SDS011;18610;49.916;8.284;2022-10-16T10:11:07;1.48;;;1.38;;
32096;SDS011;18610;49.916;8.284;2022-10-16T10:13:35;1.65;;;1.17;;
32096;SDS011;18610;49.916;8.284;2022-10-16T10:16:02;3.40;;;1.42;;
32096;SDS011;18610;49.916;8.284;2022-10-16T10:18:29;2.55;;;1.70;;
32096;SDS011;18610;49.916;8.284;2022-10-16T10:20:57;7.65;;;2.10;;
32096;SDS011;18610;49.916;8.284;2022-10-16T10:23:26;1.13;;;0.90;;
32096;SDS011;18610;49.916;8.284;2022-10-16T10:25:55;1.15;;;0.98;;
32096;SDS011;18610;49.916;8.284;2022-10-16T10:28:31;5.78;;;1.80;;
32096;SDS011;18610;49.916;8.284;2022-10-16T10:31:14;3.70;;;1.17;;
32096;SDS011;18610;49.916;8.284;2022-10-16T10:33:48;1.75;;;1.35;;
32096;SDS011;18610;49.916;8.284;2022-10-16T10:36:24;4.68;;;1.30;;
32096;SDS011;18610;49.916;8.284;2022-10-16T10:38:55;1.77;;;1.20;;
32096;SDS011;18610;49.916;8.284;2022-10-16T10:44:32;3.95;;;1.67;;
32096;SDS011;18610;49.916;8.284;2022-10-16T10:47:18;1.48;;;1.30;;
32096;SDS011;18610;49.916;8.284;2022-10-16T10:49:57;2.40;;;1.65;;
32096;SDS011;18610;49.916;8.284;2022-10-16T10:52:41;3.47;;;1.70;;
32096;SDS011;18610;49.916;8.284;2022-10-16T10:55:20;2.20;;;1.60;;
32096;SDS011;18610;49.916;8.284;2022-10-16T11:00:49;10.63;;;2.17;;
32096;SDS011;18610;49.916;8.284;2022-10-16T11:03:27;4.13;;;1.70;;
32096;SDS011;18610;49.916;8.284;2022-10-16T11:06:07;4.10;;;1.55;;
32096;SDS011;18610;49.916;8.284;2022-10-16T11:08:39;6.35;;;1.60;;
32096;SDS011;18610;49.916;8.284;2022-10-16T11:11:10;3.23;;;1.83;;
32096;SDS011;18610;49.916;8.284;2022-10-16T11:13:44;4.95;;;1.73;;
32096;SDS011;18610;49.916;8.284;2022-10-16T11:16:19;2.95;;;1.63;;
32096;SDS011;18610;49.916;8.284;2022-10-16T11:18:51;4.10;;;1.75;;
32096;SDS011;18610;49.916;8.284;2022-10-16T11:21:22;3.45;;;1.60;;
32096;SDS011;18610;49.916;8.284;2022-10-16T11:23:51;4.60;;;1.42;;
32096;SDS011;18610;49.916;8.284;2022-10-16T11:26:24;5.38;;;1.65;;
32096;SDS011;18610;49.916;8.284;2022-10-16T11:28:53;3.40;;;1.50;;
32096;SDS011;18610;49.916;8.284;2022-10-16T11:31:27;5.07;;;1.58;;
32096;SDS011;18610;49.916;8.284;2022-10-16T11:34:00;3.85;;;1.55;;
32096;SDS011;18610;49.916;8.284;2022-10-16T11:36:32;4.78;;;2.10;;
32096;SDS011;18610;49.916;8.284;2022-10-16T11:39:06;2.83;;;1.38;;
32096;SDS011;18610;49.916;8.284;2022-10-16T11:41:45;1.88;;;1.30;;
32096;SDS011;18610;49.916;8.284;2022-10-16T11:44:18;1.98;;;1.67;;
32096;SDS011;18610;49.916;8.284;2022-10-16T11:47:00;2.60;;;1.52;;
32096;SDS011;18610;49.916;8.284;2022-10-16T11:49:35;2.72;;;1.67;;
32096;SDS011;18610;49.916;8.284;2022-10-16T11:52:05;3.88;;;1.40;;
32096;SDS011;18610;49.916;8.284;2022-10-16T11:54:40;3.78;;;1.55;;
32096;SDS011;18610;49.916;8.284;2022-10-16T11:57:16;4.13;;;1.50;;
32096;SDS011;18610;49.916;8.284;2022-10-16T11:59:47;2.58;;;1.10;;
32096;SDS011;18610;49.916;8.284;2022-10-16T12:02:38;2.17;;;1.25;;
32096;SDS011;18610;49.916;8.284;2022-10-16T12:05:18;3.03;;;1.33;;
32096;SDS011;18610;49.916;8.284;2022-10-16T12:07:51;1.63;;;1.10;;
32096;SDS011;18610;49.916;8.284;2022-10-16T12:10:27;5.35;;;0.82;;
32096;SDS011;18610;49.916;8.284;2022-10-16T12:12:56;4.35;;;1.70;;
32096;SDS011;18610;49.916;8.284;2022-10-16T12:15:24;5.47;;;1.02;;
32096;SDS011;18610;49.916;8.284;2022-10-16T12:17:54;2.30;;;1.10;;
32096;SDS011;18610;49.916;8.284;2022-10-16T12:20:23;1.23;;;1.00;;
32096;SDS011;18610;49.916;8.284;2022-10-16T12:22:53;1.65;;;0.98;;
32096;SDS011;18610;49.916;8.284;2022-10-16T12:25:23;2.95;;;0.93;;
32096;SDS011;18610;49.916;8.284;2022-10-16T12:27:56;3.83;;;1.10;;
32096;SDS011;18610;49.916;8.284;2022-10-16T12:30:26;2.08;;;1.00;;
32096;SDS011;18610;49.916;8.284;2022-10-16T12:32:56;3.22;;;1.25;;
32096;SDS011;18610;49.916;8.284;2022-10-16T12:35:26;4.22;;;1.25;;
32096;SDS011;18610;49.916;8.284;2022-10-16T12:38:03;4.70;;;1.00;;
32096;SDS011;18610;49.916;8.284;2022-10-16T12:40:34;4.50;;;1.10;;
32096;SDS011;18610;49.916;8.284;2022-10-16T12:46:20;2.55;;;1.00;;
32096;SDS011;18610;49.916;8.284;2022-10-16T12:48:50;1.58;;;1.17;;
32096;SDS011;18610;49.916;8.284;2022-10-16T12:51:22;3.17;;;1.02;;
32096;SDS011;18610;49.916;8.284;2022-10-16T12:54:00;2.15;;;1.08;;
32096;SDS011;18610;49.916;8.284;2022-10-16T12:56:30;8.70;;;1.55;;
32096;SDS011;18610;49.916;8.284;2022-10-16T12:59:06;4.38;;;1.45;;
32096;SDS011;18610;49.916;8.284;2022-10-16T13:01:47;3.88;;;1.20;;
32096;SDS011;18610;49.916;8.284;2022-10-16T13:04:32;2.47;;;1.33;;
32096;SDS011;18610;49.916;8.284;2022-10-16T13:07:21;3.03;;;1.60;;
32096;SDS011;18610;49.916;8.284;2022-10-16T13:10:02;2.67;;;1.00;;
32096;SDS011;18610;49.916;8.284;2022-10-16T13:12:46;1.73;;;1.45;;
32096;SDS011;18610;49.916;8.284;2022-10-16T13:18:25;1.87;;;1.07;;
32096;SDS011;18610;49.916;8.284;2022-10-16T13:20:59;5.38;;;1.75;;
32096;SDS011;18610;49.916;8.284;2022-10-16T13:23:38;1.67;;;1.10;;
32096;SDS011;18610;49.916;8.284;2022-10-16T13:26:15;1.65;;;1.00;;
32096;SDS011;18610;49.916;8.284;2022-10-16T13:28:49;1.05;;;1.05;;
32096;SDS011;18610;49.916;8.284;2022-10-16T13:31:17;4.45;;;1.30;;
32096;SDS011;18610;49.916;8.284;2022-10-16T13:33:48;2.13;;;1.27;;
32096;SDS011;18610;49.916;8.284;2022-10-16T13:36:21;1.80;;;1.50;;
32096;SDS011;18610;49.916;8.284;2022-10-16T13:38:59;2.65;;;1.73;;
32096;SDS011;18610;49.916;8.284;2022-10-16T13:41:31;4.00;;;1.50;;
32096;SDS011;18610;49.916;8.284;2022-10-16T13:43:57;2.63;;;1.48;;
32096;SDS011;18610;49.916;8.284;2022-10-16T13:46:25;1.38;;;1.17;;
32096;SDS011;18610;49.916;8.284;2022-10-16T13:48:58;3.15;;;1.73;;
32096;SDS011;18610;49.916;8.284;2022-10-16T13:51:28;1.50;;;1.40;;
32096;SDS011;18610;49.916;8.284;2022-10-16T13:53:56;1.70;;;1.30;;
32096;SDS011;18610;49.916;8.284;2022-10-16T13:56:25;3.75;;;1.40;;
32096;SDS011;18610;49.916;8.284;2022-10-16T13:59:00;2.60;;;1.60;;
32096;SDS011;18610;49.916;8.284;2022-10-16T14:01:29;1.40;;;1.30;;
32096;SDS011;18610;49.916;8.284;2022-10-16T14:04:00;2.55;;;1.50;;
32096;SDS011;18610;49.916;8.284;2022-10-16T14:06:31;3.50;;;1.48;;
32096;SDS011;18610;49.916;8.284;2022-10-16T14:08:59;3.42;;;1.45;;
32096;SDS011;18610;49.916;8.284;2022-10-16T14:11:31;2.65;;;1.65;;
32096;SDS011;18610;49.916;8.284;2022-10-16T14:13:58;2.67;;;1.50;;
32096;SDS011;18610;49.916;8.284;2022-10-16T14:16:27;1.90;;;1.30;;
32096;SDS011;18610;49.916;8.284;2022-10-16T14:18:56;2.03;;;1.40;;
32096;SDS011;18610;49.916;8.284;2022-10-16T14:21:25;1.33;;;1.15;;
32096;SDS011;18610;49.916;8.284;2022-10-16T14:23:55;2.97;;;1.60;;
32096;SDS011;18610;49.916;8.284;2022-10-16T14:26:22;3.50;;;1.67;;
32096;SDS011;18610;49.916;8.284;2022-10-16T14:29:01;4.13;;;1.80;;
32096;SDS011;18610;49.916;8.284;2022-10-16T14:31:36;7.05;;;1.85;;
32096;SDS011;18610;49.916;8.284;2022-10-16T14:34:04;2.70;;;1.80;;
32096;SDS011;18610;49.916;8.284;2022-10-16T14:36:49;2.38;;;1.88;;
32096;SDS011;18610;49.916;8.284;2022-10-16T14:39:18;4.47;;;1.83;;
32096;SDS011;18610;49.916;8.284;2022-10-16T14:41:47;9.13;;;2.17;;
32096;SDS011;18610;49.916;8.284;2022-10-16T14:44:17;8.05;;;4.57;;
32096;SDS011;18610;49.916;8.284;2022-10-16T14:46:44;12.77;;;8.13;;
32096;SDS011;18610;49.916;8.284;2022-10-16T14:49:14;10.48;;;6.30;;
32096;SDS011;18610;49.916;8.284;2022-10-16T14:51:43;48.90;;;36.35;;
32096;SDS011;18610;49.916;8.284;2022-10-16T14:54:11;87.78;;;62.05;;
32096;SDS011;18610;49.916;8.284;2022-10-16T14:56:43;75.03;;;51.85;;
32096;SDS011;18610;49.916;8.284;2022-10-16T14:59:14;49.92;;;34.53;;
32096;SDS011;18610;49.916;8.284;2022-10-16T15:01:44;39.27;;;26.93;;
32096;SDS011;18610;49.916;8.284;2022-10-16T15:04:11;54.53;;;37.03;;
32096;SDS011;18610;49.916;8.284;2022-10-16T15:06:40;95.28;;;62.95;;
32096;SDS011;18610;49.916;8.284;2022-10-16T15:09:06;103.80;;;65.43;;
32096;SDS011;18610;49.916;8.284;2022-10-16T15:11:33;116.30;;;73.72;;
32096;SDS011;18610;49.916;8.284;2022-10-16T15:14:02;105.55;;;75.43;;
32096;SDS011;18610;49.916;8.284;2022-10-16T15:16:30;26.08;;;17.80;;
32096;SDS011;18610;49.916;8.284;2022-10-16T15:18:57;127.78;;;90.80;;
32096;SDS011;18610;49.916;8.284;2022-10-16T15:21:25;96.50;;;68.07;;